sensor_id;sensor_type;location;lat;lon;timestamp;P1;durP1;ratioP1;P2;durP2;ratioP2
36189;SDS011;22232;50.914;13.858;2023-12-07T00:00:25;22.05;;;14.02;;
36189;SDS011;22232;50.914;13.858;2023-12-07T00:02:52;21.08;;;13.27;;
36189;SDS011;22232;50.914;13.858;2023-12-07T00:05:20;22.88;;;13.77;;
36189;SDS011;22232;50.914;13.858;2023-12-07T00:07:47;21.92;;;13.90;;
36189;SDS011;22232;50.914;13.858;2023-12-07T00:10:15;21.52;;;13.48;;
36189;SDS011;22232;50.914;13.858;2023-12-07T00:12:42;20.38;;;12.98;;
36189;SDS011;22232;50.914;13.858;2023-12-07T00:15:10;21.92;;;13.95;;
36189;SDS011;22232;50.914;13.858;2023-12-07T00:17:38;22.48;;;13.88;;
36189;SDS011;22232;50.914;13.858;2023-12-07T00:20:05;20.90;;;13.07;;
36189;SDS011;22232;50.914;13.858;2023-12-07T00:22:33;22.60;;;13.98;;
36189;SDS011;22232;50.914;13.858;2023-12-07T00:25:01;20.58;;;12.73;;
36189;SDS011;22232;50.914;13.858;2023-12-07T00:27:29;21.17;;;13.07;;
36189;SDS011;22232;50.914;13.858;2023-12-07T00:29:56;19.52;;;12.82;;
36189;SDS011;22232;50.914;13.858;2023-12-07T00:32:24;21.77;;;13.88;;
36189;SDS011;22232;50.914;13.858;2023-12-07T00:34:54;20.85;;;13.35;;
36189;SDS011;22232;50.914;13.858;2023-12-07T00:37:22;22.05;;;13.43;;
36189;SDS011;22232;50.914;13.858;2023-12-07T00:39:50;22.05;;;13.50;;
36189;SDS011;22232;50.914;13.858;2023-12-07T00:42:17;23.38;;;14.48;;
36189;SDS011;22232;50.914;13.858;2023-12-07T00:44:45;25.10;;;14.93;;
36189;SDS011;22232;50.914;13.858;2023-12-07T00:47:12;21.60;;;14.60;;
36189;SDS011;22232;50.914;13.858;2023-12-07T00:49:40;22.00;;;15.23;;
36189;SDS011;22232;50.914;13.858;2023-12-07T00:52:08;22.63;;;14.45;;
36189;SDS011;22232;50.914;13.858;2023-12-07T00:54:36;25.08;;;15.18;;
36189;SDS011;22232;50.914;13.858;2023-12-07T00:57:04;24.92;;;14.57;;
36189;SDS011;22232;50.914;13.858;2023-12-07T00:59:31;25.85;;;15.57;;
36189;SDS011;22232;50.914;13.858;2023-12-07T01:02:01;25.38;;;14.68;;
36189;SDS011;22232;50.914;13.858;2023-12-07T01:04:33;23.90;;;15.15;;
36189;SDS011;22232;50.914;13.858;2023-12-07T01:07:01;25.40;;;14.63;;
36189;SDS011;22232;50.914;13.858;2023-12-07T01:09:29;24.90;;;15.85;;
36189;SDS011;22232;50.914;13.858;2023-12-07T01:11:56;23.25;;;14.80;;
36189;SDS011;22232;50.914;13.858;2023-12-07T01:14:25;23.65;;;14.90;;
36189;SDS011;22232;50.914;13.858;2023-12-07T01:16:52;22.20;;;13.90;;
36189;SDS011;22232;50.914;13.858;2023-12-07T01:19:20;24.45;;;14.57;;
36189;SDS011;22232;50.914;13.858;2023-12-07T01:21:48;21.40;;;12.82;;
36189;SDS011;22232;50.914;13.858;2023-12-07T01:24:16;21.08;;;13.43;;
36189;SDS011;22232;50.914;13.858;2023-12-07T01:26:44;21.58;;;13.15;;
36189;SDS011;22232;50.914;13.858;2023-12-07T01:29:11;19.95;;;13.38;;
36189;SDS011;22232;50.914;13.858;2023-12-07T01:31:41;20.20;;;13.00;;
36189;SDS011;22232;50.914;13.858;2023-12-07T01:34:09;21.80;;;13.13;;
36189;SDS011;22232;50.914;13.858;2023-12-07T01:36:37;23.60;;;13.82;;
36189;SDS011;22232;50.914;13.858;2023-12-07T01:39:05;21.23;;;13.90;;
36189;SDS011;22232;50.914;13.858;2023-12-07T01:41:32;20.92;;;12.93;;
36189;SDS011;22232;50.914;13.858;2023-12-07T01:44:00;20.13;;;12.50;;
36189;SDS011;22232;50.914;13.858;2023-12-07T01:46:28;21.65;;;14.00;;
36189;SDS011;22232;50.914;13.858;2023-12-07T01:48:56;23.65;;;14.18;;
36189;SDS011;22232;50.914;13.858;2023-12-07T01:51:24;27.10;;;16.33;;
36189;SDS011;22232;50.914;13.858;2023-12-07T01:53:52;24.02;;;14.98;;
36189;SDS011;22232;50.914;13.858;2023-12-07T01:56:22;23.45;;;14.93;;
36189;SDS011;22232;50.914;13.858;2023-12-07T01:58:52;24.40;;;14.45;;
36189;SDS011;22232;50.914;13.858;2023-12-07T02:01:19;24.17;;;15.23;;
36189;SDS011;22232;50.914;13.858;2023-12-07T02:03:47;24.52;;;14.65;;
36189;SDS011;22232;50.914;13.858;2023-12-07T02:06:15;23.33;;;15.23;;
36189;SDS011;22232;50.914;13.858;2023-12-07T02:08:43;25.63;;;16.27;;
36189;SDS011;22232;50.914;13.858;2023-12-07T02:11:11;25.63;;;15.70;;
36189;SDS011;22232;50.914;13.858;2023-12-07T02:13:40;26.45;;;15.65;;
36189;SDS011;22232;50.914;13.858;2023-12-07T02:16:13;29.40;;;16.48;;
36189;SDS011;22232;50.914;13.858;2023-12-07T02:19:03;27.42;;;16.20;;
36189;SDS011;22232;50.914;13.858;2023-12-07T02:21:49;32.05;;;18.23;;
36189;SDS011;22232;50.914;13.858;2023-12-07T02:24:24;29.13;;;17.40;;
36189;SDS011;22232;50.914;13.858;2023-12-07T02:26:55;30.92;;;18.23;;
36189;SDS011;22232;50.914;13.858;2023-12-07T02:29:22;31.10;;;18.05;;
36189;SDS011;22232;50.914;13.858;2023-12-07T02:31:50;32.63;;;17.95;;
36189;SDS011;22232;50.914;13.858;2023-12-07T02:34:18;33.30;;;18.30;;
36189;SDS011;22232;50.914;13.858;2023-12-07T02:36:46;29.73;;;17.65;;
36189;SDS011;22232;50.914;13.858;2023-12-07T02:39:16;31.65;;;19.27;;
36189;SDS011;22232;50.914;13.858;2023-12-07T02:41:44;34.17;;;18.83;;
36189;SDS011;22232;50.914;13.858;2023-12-07T02:44:14;30.75;;;18.17;;
36189;SDS011;22232;50.914;13.858;2023-12-07T02:46:42;33.70;;;18.95;;
36189;SDS011;22232;50.914;13.858;2023-12-07T02:49:09;33.45;;;19.35;;
36189;SDS011;22232;50.914;13.858;2023-12-07T02:51:37;33.83;;;19.42;;
36189;SDS011;22232;50.914;13.858;2023-12-07T02:54:04;31.55;;;17.98;;
36189;SDS011;22232;50.914;13.858;2023-12-07T02:56:32;32.63;;;20.00;;
36189;SDS011;22232;50.914;13.858;2023-12-07T02:59:00;32.75;;;19.60;;
36189;SDS011;22232;50.914;13.858;2023-12-07T03:01:27;35.60;;;20.45;;
36189;SDS011;22232;50.914;13.858;2023-12-07T03:03:55;35.25;;;19.70;;
36189;SDS011;22232;50.914;13.858;2023-12-07T03:06:23;32.78;;;18.85;;
36189;SDS011;22232;50.914;13.858;2023-12-07T03:08:50;33.20;;;18.25;;
36189;SDS011;22232;50.914;13.858;2023-12-07T03:11:18;33.70;;;18.98;;
36189;SDS011;22232;50.914;13.858;2023-12-07T03:13:45;29.60;;;18.02;;
36189;SDS011;22232;50.914;13.858;2023-12-07T03:16:13;33.00;;;18.35;;
36189;SDS011;22232;50.914;13.858;2023-12-07T03:18:41;28.70;;;16.98;;
36189;SDS011;22232;50.914;13.858;2023-12-07T03:21:08;31.80;;;18.50;;
36189;SDS011;22232;50.914;13.858;2023-12-07T03:23:36;33.72;;;18.80;;
36189;SDS011;22232;50.914;13.858;2023-12-07T03:26:03;31.85;;;18.13;;
36189;SDS011;22232;50.914;13.858;2023-12-07T03:28:31;31.10;;;18.98;;
36189;SDS011;22232;50.914;13.858;2023-12-07T03:30:59;31.38;;;18.83;;
36189;SDS011;22232;50.914;13.858;2023-12-07T03:33:26;31.40;;;17.85;;
36189;SDS011;22232;50.914;13.858;2023-12-07T03:35:54;31.95;;;17.73;;
36189;SDS011;22232;50.914;13.858;2023-12-07T03:38:21;33.22;;;18.85;;
36189;SDS011;22232;50.914;13.858;2023-12-07T03:40:49;32.70;;;18.98;;
36189;SDS011;22232;50.914;13.858;2023-12-07T03:43:19;31.20;;;17.83;;
36189;SDS011;22232;50.914;13.858;2023-12-07T03:45:48;35.30;;;19.05;;
36189;SDS011;22232;50.914;13.858;2023-12-07T03:48:15;31.27;;;18.48;;
36189;SDS011;22232;50.914;13.858;2023-12-07T03:50:43;31.17;;;17.65;;
36189;SDS011;22232;50.914;13.858;2023-12-07T03:53:10;32.60;;;18.85;;
36189;SDS011;22232;50.914;13.858;2023-12-07T03:55:38;34.30;;;18.23;;
36189;SDS011;22232;50.914;13.858;2023-12-07T03:58:06;30.45;;;17.65;;
36189;SDS011;22232;50.914;13.858;2023-12-07T04:00:33;34.78;;;19.42;;
36189;SDS011;22232;50.914;13.858;2023-12-07T04:03:01;32.13;;;18.83;;
36189;SDS011;22232;50.914;13.858;2023-12-07T04:05:29;30.77;;;18.40;;
36189;SDS011;22232;50.914;13.858;2023-12-07T04:07:56;36.67;;;20.75;;
36189;SDS011;22232;50.914;13.858;2023-12-07T04:10:24;36.88;;;21.17;;
36189;SDS011;22232;50.914;13.858;2023-12-07T04:12:52;46.88;;;23.25;;
36189;SDS011;22232;50.914;13.858;2023-12-07T04:15:22;39.80;;;23.10;;
36189;SDS011;22232;50.914;13.858;2023-12-07T04:17:50;38.05;;;21.63;;
36189;SDS011;22232;50.914;13.858;2023-12-07T04:20:18;42.95;;;23.60;;
36189;SDS011;22232;50.914;13.858;2023-12-07T04:22:45;39.92;;;21.17;;
36189;SDS011;22232;50.914;13.858;2023-12-07T04:25:13;42.08;;;22.70;;
36189;SDS011;22232;50.914;13.858;2023-12-07T04:27:41;41.78;;;22.50;;
36189;SDS011;22232;50.914;13.858;2023-12-07T04:30:09;37.47;;;21.02;;
36189;SDS011;22232;50.914;13.858;2023-12-07T04:32:37;39.33;;;20.70;;
36189;SDS011;22232;50.914;13.858;2023-12-07T04:35:06;37.13;;;20.70;;
36189;SDS011;22232;50.914;13.858;2023-12-07T04:37:35;36.83;;;20.88;;
36189;SDS011;22232;50.914;13.858;2023-12-07T04:40:03;39.05;;;20.17;;
36189;SDS011;22232;50.914;13.858;2023-12-07T04:42:32;38.67;;;20.75;;
36189;SDS011;22232;50.914;13.858;2023-12-07T04:44:59;36.22;;;20.52;;
36189;SDS011;22232;50.914;13.858;2023-12-07T04:47:27;37.70;;;19.63;;
36189;SDS011;22232;50.914;13.858;2023-12-07T04:49:55;40.80;;;20.63;;
36189;SDS011;22232;50.914;13.858;2023-12-07T04:52:23;37.72;;;20.15;;
36189;SDS011;22232;50.914;13.858;2023-12-07T04:54:51;34.95;;;19.35;;
36189;SDS011;22232;50.914;13.858;2023-12-07T04:57:18;32.88;;;18.17;;
36189;SDS011;22232;50.914;13.858;2023-12-07T04:59:46;32.60;;;18.60;;
36189;SDS011;22232;50.914;13.858;2023-12-07T05:02:14;37.88;;;20.13;;
36189;SDS011;22232;50.914;13.858;2023-12-07T05:04:43;35.85;;;19.45;;
36189;SDS011;22232;50.914;13.858;2023-12-07T05:07:12;33.85;;;19.23;;
36189;SDS011;22232;50.914;13.858;2023-12-07T05:09:40;35.92;;;19.33;;
36189;SDS011;22232;50.914;13.858;2023-12-07T05:12:07;36.28;;;19.55;;
36189;SDS011;22232;50.914;13.858;2023-12-07T05:14:35;32.47;;;18.35;;
36189;SDS011;22232;50.914;13.858;2023-12-07T05:17:03;34.00;;;18.90;;
36189;SDS011;22232;50.914;13.858;2023-12-07T05:19:32;33.72;;;18.75;;
36189;SDS011;22232;50.914;13.858;2023-12-07T05:22:00;31.10;;;18.27;;
36189;SDS011;22232;50.914;13.858;2023-12-07T05:24:27;39.85;;;19.73;;
36189;SDS011;22232;50.914;13.858;2023-12-07T05:26:57;31.83;;;18.52;;
36189;SDS011;22232;50.914;13.858;2023-12-07T05:29:25;31.58;;;18.20;;
36189;SDS011;22232;50.914;13.858;2023-12-07T05:31:52;34.15;;;18.85;;
36189;SDS011;22232;50.914;13.858;2023-12-07T05:34:20;31.88;;;17.95;;
36189;SDS011;22232;50.914;13.858;2023-12-07T05:36:47;33.53;;;18.92;;
36189;SDS011;22232;50.914;13.858;2023-12-07T05:39:15;35.20;;;19.30;;
36189;SDS011;22232;50.914;13.858;2023-12-07T05:41:45;32.33;;;18.45;;
36189;SDS011;22232;50.914;13.858;2023-12-07T05:44:14;33.33;;;18.20;;
36189;SDS011;22232;50.914;13.858;2023-12-07T05:46:41;34.60;;;18.98;;
36189;SDS011;22232;50.914;13.858;2023-12-07T05:49:11;30.88;;;16.92;;
36189;SDS011;22232;50.914;13.858;2023-12-07T05:51:39;29.38;;;16.90;;
36189;SDS011;22232;50.914;13.858;2023-12-07T05:54:07;30.20;;;16.92;;
36189;SDS011;22232;50.914;13.858;2023-12-07T05:56:35;30.25;;;17.38;;
36189;SDS011;22232;50.914;13.858;2023-12-07T05:59:02;31.80;;;17.58;;
36189;SDS011;22232;50.914;13.858;2023-12-07T06:01:30;30.10;;;16.92;;
36189;SDS011;22232;50.914;13.858;2023-12-07T06:03:59;31.10;;;17.73;;
36189;SDS011;22232;50.914;13.858;2023-12-07T06:06:26;29.70;;;17.27;;
36189;SDS011;22232;50.914;13.858;2023-12-07T06:08:54;35.35;;;18.83;;
36189;SDS011;22232;50.914;13.858;2023-12-07T06:11:22;32.95;;;18.25;;
36189;SDS011;22232;50.914;13.858;2023-12-07T06:13:49;33.95;;;18.95;;
36189;SDS011;22232;50.914;13.858;2023-12-07T06:16:17;34.00;;;18.35;;
36189;SDS011;22232;50.914;13.858;2023-12-07T06:18:45;30.92;;;18.23;;
36189;SDS011;22232;50.914;13.858;2023-12-07T06:21:13;31.63;;;17.73;;
36189;SDS011;22232;50.914;13.858;2023-12-07T06:23:41;33.80;;;18.33;;
36189;SDS011;22232;50.914;13.858;2023-12-07T06:26:09;33.50;;;17.98;;
36189;SDS011;22232;50.914;13.858;2023-12-07T06:28:36;34.63;;;19.20;;
36189;SDS011;22232;50.914;13.858;2023-12-07T06:31:04;41.78;;;22.65;;
36189;SDS011;22232;50.914;13.858;2023-12-07T06:33:34;32.78;;;18.38;;
36189;SDS011;22232;50.914;13.858;2023-12-07T06:36:02;32.60;;;18.10;;
36189;SDS011;22232;50.914;13.858;2023-12-07T06:38:32;34.83;;;18.83;;
36189;SDS011;22232;50.914;13.858;2023-12-07T06:41:00;29.58;;;17.27;;
36189;SDS011;22232;50.914;13.858;2023-12-07T06:43:27;32.10;;;17.58;;
36189;SDS011;22232;50.914;13.858;2023-12-07T06:45:55;31.83;;;17.80;;
36189;SDS011;22232;50.914;13.858;2023-12-07T06:48:23;33.78;;;18.67;;
36189;SDS011;22232;50.914;13.858;2023-12-07T06:50:51;32.13;;;18.23;;
36189;SDS011;22232;50.914;13.858;2023-12-07T06:53:19;28.40;;;16.23;;
36189;SDS011;22232;50.914;13.858;2023-12-07T06:55:46;29.83;;;16.75;;
36189;SDS011;22232;50.914;13.858;2023-12-07T06:58:14;33.90;;;17.25;;
36189;SDS011;22232;50.914;13.858;2023-12-07T07:00:42;29.75;;;16.83;;
36189;SDS011;22232;50.914;13.858;2023-12-07T07:03:09;28.98;;;16.83;;
36189;SDS011;22232;50.914;13.858;2023-12-07T07:05:37;29.05;;;16.80;;
36189;SDS011;22232;50.914;13.858;2023-12-07T07:08:04;27.90;;;16.35;;
36189;SDS011;22232;50.914;13.858;2023-12-07T07:10:33;30.15;;;16.88;;
36189;SDS011;22232;50.914;13.858;2023-12-07T07:13:02;27.40;;;15.65;;
36189;SDS011;22232;50.914;13.858;2023-12-07T07:15:33;28.15;;;15.45;;
36189;SDS011;22232;50.914;13.858;2023-12-07T07:18:01;32.65;;;16.88;;
36189;SDS011;22232;50.914;13.858;2023-12-07T07:20:29;32.97;;;17.73;;
36189;SDS011;22232;50.914;13.858;2023-12-07T07:22:56;30.17;;;17.27;;
36189;SDS011;22232;50.914;13.858;2023-12-07T07:25:24;35.42;;;16.83;;
36189;SDS011;22232;50.914;13.858;2023-12-07T07:27:52;30.95;;;17.45;;
36189;SDS011;22232;50.914;13.858;2023-12-07T07:30:21;31.08;;;17.30;;
36189;SDS011;22232;50.914;13.858;2023-12-07T07:32:49;31.23;;;16.67;;
36189;SDS011;22232;50.914;13.858;2023-12-07T07:35:17;32.53;;;17.85;;
36189;SDS011;22232;50.914;13.858;2023-12-07T07:37:45;32.55;;;17.25;;
36189;SDS011;22232;50.914;13.858;2023-12-07T07:40:12;31.48;;;17.58;;
36189;SDS011;22232;50.914;13.858;2023-12-07T07:42:40;33.67;;;18.33;;
36189;SDS011;22232;50.914;13.858;2023-12-07T07:45:09;30.50;;;17.38;;
36189;SDS011;22232;50.914;13.858;2023-12-07T07:47:37;30.50;;;17.20;;
36189;SDS011;22232;50.914;13.858;2023-12-07T07:50:05;31.75;;;17.17;;
36189;SDS011;22232;50.914;13.858;2023-12-07T07:52:33;30.10;;;17.25;;
36189;SDS011;22232;50.914;13.858;2023-12-07T07:55:03;30.27;;;16.85;;
36189;SDS011;22232;50.914;13.858;2023-12-07T07:57:32;30.42;;;16.25;;
36189;SDS011;22232;50.914;13.858;2023-12-07T07:59:59;30.40;;;17.02;;
36189;SDS011;22232;50.914;13.858;2023-12-07T08:02:27;30.23;;;16.77;;
36189;SDS011;22232;50.914;13.858;2023-12-07T08:04:55;30.98;;;18.23;;
36189;SDS011;22232;50.914;13.858;2023-12-07T08:07:22;29.80;;;17.65;;
36189;SDS011;22232;50.914;13.858;2023-12-07T08:09:51;32.25;;;17.70;;
36189;SDS011;22232;50.914;13.858;2023-12-07T08:12:18;33.13;;;17.90;;
36189;SDS011;22232;50.914;13.858;2023-12-07T08:14:46;33.15;;;17.92;;
36189;SDS011;22232;50.914;13.858;2023-12-07T08:17:15;34.28;;;17.42;;
36189;SDS011;22232;50.914;13.858;2023-12-07T08:19:43;32.70;;;17.63;;
36189;SDS011;22232;50.914;13.858;2023-12-07T08:22:11;29.17;;;16.55;;
36189;SDS011;22232;50.914;13.858;2023-12-07T08:24:39;35.53;;;17.85;;
36189;SDS011;22232;50.914;13.858;2023-12-07T08:27:07;34.10;;;18.42;;
36189;SDS011;22232;50.914;13.858;2023-12-07T08:29:35;29.27;;;16.30;;
36189;SDS011;22232;50.914;13.858;2023-12-07T08:32:03;32.95;;;17.15;;
36189;SDS011;22232;50.914;13.858;2023-12-07T08:34:31;32.92;;;17.60;;
36189;SDS011;22232;50.914;13.858;2023-12-07T08:36:59;30.50;;;17.10;;
36189;SDS011;22232;50.914;13.858;2023-12-07T08:39:27;31.50;;;17.65;;
36189;SDS011;22232;50.914;13.858;2023-12-07T08:41:54;33.67;;;18.90;;
36189;SDS011;22232;50.914;13.858;2023-12-07T08:44:22;32.40;;;17.20;;
36189;SDS011;22232;50.914;13.858;2023-12-07T08:46:49;28.83;;;16.02;;
36189;SDS011;22232;50.914;13.858;2023-12-07T08:49:17;27.17;;;15.70;;
36189;SDS011;22232;50.914;13.858;2023-12-07T08:51:45;28.17;;;16.83;;
36189;SDS011;22232;50.914;13.858;2023-12-07T08:54:32;30.40;;;15.43;;
36189;SDS011;22232;50.914;13.858;2023-12-07T08:57:00;27.77;;;15.98;;
36189;SDS011;22232;50.914;13.858;2023-12-07T08:59:28;29.88;;;15.55;;
36189;SDS011;22232;50.914;13.858;2023-12-07T09:01:57;30.35;;;16.90;;
36189;SDS011;22232;50.914;13.858;2023-12-07T09:04:25;29.40;;;16.30;;
36189;SDS011;22232;50.914;13.858;2023-12-07T09:06:53;26.38;;;15.18;;
36189;SDS011;22232;50.914;13.858;2023-12-07T09:09:20;27.27;;;15.70;;
36189;SDS011;22232;50.914;13.858;2023-12-07T09:11:49;29.25;;;16.52;;
36189;SDS011;22232;50.914;13.858;2023-12-07T09:14:17;25.88;;;14.30;;
36189;SDS011;22232;50.914;13.858;2023-12-07T09:16:44;28.10;;;15.45;;
36189;SDS011;22232;50.914;13.858;2023-12-07T09:19:13;28.92;;;16.17;;
36189;SDS011;22232;50.914;13.858;2023-12-07T09:21:41;30.15;;;15.90;;
36189;SDS011;22232;50.914;13.858;2023-12-07T09:24:08;25.60;;;15.15;;
36189;SDS011;22232;50.914;13.858;2023-12-07T09:26:36;23.00;;;14.93;;
36189;SDS011;22232;50.914;13.858;2023-12-07T09:29:04;27.90;;;16.17;;
36189;SDS011;22232;50.914;13.858;2023-12-07T09:31:32;26.08;;;15.25;;
36189;SDS011;22232;50.914;13.858;2023-12-07T09:34:00;26.05;;;15.70;;
36189;SDS011;22232;50.914;13.858;2023-12-07T09:36:39;26.67;;;15.23;;
36189;SDS011;22232;50.914;13.858;2023-12-07T09:39:06;27.63;;;15.25;;
36189;SDS011;22232;50.914;13.858;2023-12-07T09:41:34;29.52;;;16.60;;
36189;SDS011;22232;50.914;13.858;2023-12-07T09:44:02;30.05;;;15.43;;
36189;SDS011;22232;50.914;13.858;2023-12-07T09:46:30;28.30;;;15.50;;
36189;SDS011;22232;50.914;13.858;2023-12-07T09:48:59;30.27;;;16.60;;
36189;SDS011;22232;50.914;13.858;2023-12-07T09:51:27;30.05;;;16.75;;
36189;SDS011;22232;50.914;13.858;2023-12-07T09:53:58;27.95;;;15.55;;
36189;SDS011;22232;50.914;13.858;2023-12-07T09:56:26;29.27;;;16.60;;
36189;SDS011;22232;50.914;13.858;2023-12-07T09:58:54;30.65;;;16.90;;
36189;SDS011;22232;50.914;13.858;2023-12-07T10:01:21;28.65;;;16.05;;
36189;SDS011;22232;50.914;13.858;2023-12-07T10:04:14;30.13;;;16.83;;
36189;SDS011;22232;50.914;13.858;2023-12-07T10:06:53;31.20;;;16.98;;
36189;SDS011;22232;50.914;13.858;2023-12-07T10:09:21;29.65;;;15.55;;
36189;SDS011;22232;50.914;13.858;2023-12-07T10:12:05;28.65;;;16.25;;
36189;SDS011;22232;50.914;13.858;2023-12-07T10:14:33;29.23;;;16.75;;
36189;SDS011;22232;50.914;13.858;2023-12-07T10:17:01;30.60;;;17.25;;
36189;SDS011;22232;50.914;13.858;2023-12-07T10:19:29;29.80;;;17.58;;
36189;SDS011;22232;50.914;13.858;2023-12-07T10:21:59;32.90;;;17.27;;
36189;SDS011;22232;50.914;13.858;2023-12-07T10:24:27;29.02;;;16.70;;
36189;SDS011;22232;50.914;13.858;2023-12-07T10:26:55;31.23;;;17.92;;
36189;SDS011;22232;50.914;13.858;2023-12-07T10:29:30;26.92;;;15.98;;
36189;SDS011;22232;50.914;13.858;2023-12-07T10:32:00;26.80;;;15.40;;
36189;SDS011;22232;50.914;13.858;2023-12-07T10:34:33;26.67;;;15.70;;
36189;SDS011;22232;50.914;13.858;2023-12-07T10:37:03;31.65;;;16.60;;
36189;SDS011;22232;50.914;13.858;2023-12-07T10:39:31;29.17;;;15.38;;
36189;SDS011;22232;50.914;13.858;2023-12-07T10:42:02;25.80;;;15.65;;
36189;SDS011;22232;50.914;13.858;2023-12-07T10:44:33;29.27;;;16.52;;
36189;SDS011;22232;50.914;13.858;2023-12-07T10:47:03;31.77;;;16.77;;
36189;SDS011;22232;50.914;13.858;2023-12-07T10:49:32;33.20;;;17.48;;
36189;SDS011;22232;50.914;13.858;2023-12-07T10:52:06;32.15;;;17.60;;
36189;SDS011;22232;50.914;13.858;2023-12-07T10:54:47;29.75;;;16.38;;
36189;SDS011;22232;50.914;13.858;2023-12-07T10:57:23;31.70;;;17.13;;
36189;SDS011;22232;50.914;13.858;2023-12-07T10:59:52;30.95;;;17.48;;
36189;SDS011;22232;50.914;13.858;2023-12-07T11:02:22;32.58;;;17.70;;
36189;SDS011;22232;50.914;13.858;2023-12-07T11:04:52;31.77;;;17.05;;
36189;SDS011;22232;50.914;13.858;2023-12-07T11:07:24;31.88;;;17.13;;
36189;SDS011;22232;50.914;13.858;2023-12-07T11:10:03;32.00;;;17.10;;
36189;SDS011;22232;50.914;13.858;2023-12-07T11:15:17;35.50;;;17.30;;
36189;SDS011;22232;50.914;13.858;2023-12-07T11:17:51;35.15;;;18.65;;
36189;SDS011;22232;50.914;13.858;2023-12-07T11:23:16;38.22;;;18.75;;
36189;SDS011;22232;50.914;13.858;2023-12-07T11:25:47;32.63;;;18.20;;
36189;SDS011;22232;50.914;13.858;2023-12-07T11:28:17;34.20;;;19.00;;
36189;SDS011;22232;50.914;13.858;2023-12-07T11:30:45;38.35;;;19.98;;
36189;SDS011;22232;50.914;13.858;2023-12-07T11:33:14;35.65;;;19.30;;
36189;SDS011;22232;50.914;13.858;2023-12-07T11:41:29;38.88;;;19.58;;
36189;SDS011;22232;50.914;13.858;2023-12-07T11:43:59;37.10;;;19.65;;
36189;SDS011;22232;50.914;13.858;2023-12-07T11:46:27;34.85;;;19.00;;
36189;SDS011;22232;50.914;13.858;2023-12-07T11:48:55;36.40;;;19.60;;
36189;SDS011;22232;50.914;13.858;2023-12-07T11:51:23;32.97;;;18.95;;
36189;SDS011;22232;50.914;13.858;2023-12-07T11:53:50;35.50;;;19.23;;
36189;SDS011;22232;50.914;13.858;2023-12-07T11:56:18;37.08;;;19.85;;
36189;SDS011;22232;50.914;13.858;2023-12-07T11:58:49;38.92;;;19.35;;
36189;SDS011;22232;50.914;13.858;2023-12-07T12:01:17;35.28;;;19.17;;
36189;SDS011;22232;50.914;13.858;2023-12-07T12:03:45;33.83;;;18.55;;
36189;SDS011;22232;50.914;13.858;2023-12-07T12:06:12;31.02;;;17.67;;
36189;SDS011;22232;50.914;13.858;2023-12-07T12:08:40;38.50;;;19.70;;
36189;SDS011;22232;50.914;13.858;2023-12-07T12:11:11;38.17;;;19.77;;
36189;SDS011;22232;50.914;13.858;2023-12-07T12:13:38;36.95;;;19.20;;
36189;SDS011;22232;50.914;13.858;2023-12-07T12:16:07;38.38;;;19.83;;
36189;SDS011;22232;50.914;13.858;2023-12-07T12:18:34;40.90;;;20.23;;
36189;SDS011;22232;50.914;13.858;2023-12-07T12:21:06;41.72;;;21.52;;
36189;SDS011;22232;50.914;13.858;2023-12-07T12:23:35;39.35;;;19.98;;
36189;SDS011;22232;50.914;13.858;2023-12-07T12:26:03;41.50;;;20.33;;
36189;SDS011;22232;50.914;13.858;2023-12-07T12:28:32;41.95;;;21.48;;
36189;SDS011;22232;50.914;13.858;2023-12-07T12:31:03;42.45;;;21.50;;
36189;SDS011;22232;50.914;13.858;2023-12-07T12:33:31;40.90;;;20.83;;
36189;SDS011;22232;50.914;13.858;2023-12-07T12:36:00;41.88;;;21.55;;
36189;SDS011;22232;50.914;13.858;2023-12-07T12:38:30;40.42;;;20.25;;
36189;SDS011;22232;50.914;13.858;2023-12-07T12:41:08;45.88;;;22.20;;
36189;SDS011;22232;50.914;13.858;2023-12-07T12:43:36;51.30;;;23.45;;
36189;SDS011;22232;50.914;13.858;2023-12-07T12:46:04;56.47;;;23.73;;
36189;SDS011;22232;50.914;13.858;2023-12-07T12:48:33;51.03;;;23.48;;
36189;SDS011;22232;50.914;13.858;2023-12-07T12:51:08;41.72;;;22.00;;
36189;SDS011;22232;50.914;13.858;2023-12-07T12:53:45;46.53;;;23.65;;
36189;SDS011;22232;50.914;13.858;2023-12-07T12:56:18;41.58;;;21.77;;
36189;SDS011;22232;50.914;13.858;2023-12-07T12:58:50;44.25;;;22.30;;
36189;SDS011;22232;50.914;13.858;2023-12-07T13:01:19;43.47;;;22.77;;
36189;SDS011;22232;50.914;13.858;2023-12-07T13:03:48;45.03;;;21.20;;
36189;SDS011;22232;50.914;13.858;2023-12-07T13:06:16;40.08;;;21.38;;
36189;SDS011;22232;50.914;13.858;2023-12-07T13:08:45;42.92;;;21.33;;
36189;SDS011;22232;50.914;13.858;2023-12-07T13:11:17;50.85;;;27.05;;
36189;SDS011;22232;50.914;13.858;2023-12-07T13:13:46;45.05;;;23.92;;
36189;SDS011;22232;50.914;13.858;2023-12-07T13:16:17;43.60;;;22.85;;
36189;SDS011;22232;50.914;13.858;2023-12-07T13:18:45;43.70;;;21.58;;
36189;SDS011;22232;50.914;13.858;2023-12-07T13:21:12;43.42;;;22.30;;
36189;SDS011;22232;50.914;13.858;2023-12-07T13:23:43;40.38;;;21.80;;
36189;SDS011;22232;50.914;13.858;2023-12-07T13:26:14;37.00;;;20.83;;
36189;SDS011;22232;50.914;13.858;2023-12-07T13:28:41;39.47;;;21.35;;
36189;SDS011;22232;50.914;13.858;2023-12-07T13:31:09;40.90;;;21.67;;
36189;SDS011;22232;50.914;13.858;2023-12-07T13:33:37;39.83;;;21.42;;
36189;SDS011;22232;50.914;13.858;2023-12-07T13:36:19;38.70;;;21.02;;
36189;SDS011;22232;50.914;13.858;2023-12-07T13:38:48;39.45;;;21.00;;
36189;SDS011;22232;50.914;13.858;2023-12-07T13:41:15;33.67;;;20.08;;
36189;SDS011;22232;50.914;13.858;2023-12-07T13:43:43;41.47;;;21.17;;
36189;SDS011;22232;50.914;13.858;2023-12-07T13:46:11;37.65;;;19.98;;
36189;SDS011;22232;50.914;13.858;2023-12-07T13:48:40;33.88;;;19.15;;
36189;SDS011;22232;50.914;13.858;2023-12-07T13:51:08;38.35;;;20.23;;
36189;SDS011;22232;50.914;13.858;2023-12-07T13:53:35;36.08;;;18.77;;
36189;SDS011;22232;50.914;13.858;2023-12-07T13:56:03;34.10;;;19.02;;
36189;SDS011;22232;50.914;13.858;2023-12-07T13:58:31;35.65;;;19.45;;
36189;SDS011;22232;50.914;13.858;2023-12-07T14:00:59;36.17;;;18.85;;
36189;SDS011;22232;50.914;13.858;2023-12-07T14:03:28;36.78;;;19.15;;
36189;SDS011;22232;50.914;13.858;2023-12-07T14:05:56;36.80;;;20.67;;
36189;SDS011;22232;50.914;13.858;2023-12-07T14:08:23;33.80;;;18.33;;
36189;SDS011;22232;50.914;13.858;2023-12-07T14:10:53;32.50;;;17.58;;
36189;SDS011;22232;50.914;13.858;2023-12-07T14:13:20;38.28;;;19.80;;
36189;SDS011;22232;50.914;13.858;2023-12-07T14:15:48;38.17;;;20.73;;
36189;SDS011;22232;50.914;13.858;2023-12-07T14:18:19;40.13;;;21.08;;
36189;SDS011;22232;50.914;13.858;2023-12-07T14:20:47;42.08;;;21.48;;
36189;SDS011;22232;50.914;13.858;2023-12-07T14:23:33;37.25;;;20.75;;
36189;SDS011;22232;50.914;13.858;2023-12-07T14:26:03;36.33;;;19.55;;
36189;SDS011;22232;50.914;13.858;2023-12-07T14:28:33;34.38;;;18.38;;